Station Historical Data
Daily Summary for July 10, 2017 Units:  Both    English   Metric
« Previous Day
Next Day »
Daily Weekly Monthly Yearly Custom
  High: Low: Average:
Temperature: 79.3 °F /  26.3 °C 65.8 °F /  18.8 °C 71.2 °F /  21.8 °C
Dew Point: 66.0 °F /  18.9 °C 54.7 °F /  12.6 °C 60.2 °F /  15.7 °C
Humidity: 92% 48% 70%
Wind Speed: 12.0mph /  19.3km/h - 3.3mph /  5.3km/h
Wind Gust: 18.0mph /  29km/h - -
Wind- - SW
Pressure: 29.97 in /  1014.8 hPa 29.87 in /  1011.4 hPa -
Precipitation: 0.00 in /  0 mm    
Historical Graphs
 
 
Tabular Data for July 10, 2017
Time Temperature Dew Point Pressure Wind Wind Speed Wind Gust Humidity Rainfall Rate (Hourly)
00:04 70.1 °F /  21.2 °C 59.9 °F /  15.5 °C 29.97in /  1014.8hPa SW 3.0mph /  4.8km/h 7.0mph /  11.3km/h 70% 0.00in /  0mm
00:09 69.8 °F /  21 °C 59.6 °F /  15.3 °C 29.97in /  1014.8hPa South 5.0mph /  8km/h 6.0mph /  9.7km/h 70% 0.00in /  0mm
00:14 69.5 °F /  20.8 °C 59.3 °F /  15.2 °C 29.97in /  1014.8hPa SW 3.0mph /  4.8km/h 8.0mph /  12.9km/h 70% 0.00in /  0mm
00:19 69.4 °F /  20.8 °C 59.2 °F /  15.1 °C 29.97in /  1014.8hPa SW 4.0mph /  6.4km/h 8.0mph /  12.9km/h 70% 0.00in /  0mm
00:24 69.2 °F /  20.7 °C 59.0 °F /  15 °C 29.96in /  1014.4hPa SSW 3.0mph /  4.8km/h 7.0mph /  11.3km/h 70% 0.00in /  0mm
00:30 68.9 °F /  20.5 °C 58.7 °F /  14.8 °C 29.96in /  1014.4hPa SW 3.0mph /  4.8km/h 7.0mph /  11.3km/h 70% 0.00in /  0mm
00:34 68.7 °F /  20.4 °C 58.9 °F /  14.9 °C 29.96in /  1014.4hPa SW 3.0mph /  4.8km/h 7.0mph /  11.3km/h 71% 0.00in /  0mm
00:39 68.6 °F /  20.3 °C 58.4 °F /  14.7 °C 29.96in /  1014.4hPa SW 4.0mph /  6.4km/h 5.0mph /  8km/h 70% 0.00in /  0mm
00:44 68.6 °F /  20.3 °C 58.4 °F /  14.7 °C 29.96in /  1014.4hPa SSW 3.0mph /  4.8km/h 8.0mph /  12.9km/h 70% 0.00in /  0mm
00:49 68.5 °F /  20.3 °C 58.3 °F /  14.6 °C 29.96in /  1014.4hPa SSW 3.0mph /  4.8km/h 8.0mph /  12.9km/h 70% 0.00in /  0mm
00:54 68.3 °F /  20.2 °C 58.1 °F /  14.5 °C 29.96in /  1014.4hPa SW 3.0mph /  4.8km/h 5.0mph /  8km/h 70% 0.00in /  0mm
00:59 68.1 °F /  20.1 °C 57.9 °F /  14.4 °C 29.96in /  1014.4hPa SSW 3.0mph /  4.8km/h 6.0mph /  9.7km/h 70% 0.00in /  0mm
01:04 68.1 °F /  20.1 °C 57.9 °F /  14.4 °C 29.95in /  1014.1hPa SSW 4.0mph /  6.4km/h 7.0mph /  11.3km/h 70% 0.00in /  0mm
01:09 68.3 °F /  20.2 °C 57.7 °F /  14.3 °C 29.95in /  1014.1hPa SW 4.0mph /  6.4km/h 8.0mph /  12.9km/h 69% 0.00in /  0mm
01:14 68.3 °F /  20.2 °C 57.7 °F /  14.3 °C 29.95in /  1014.1hPa WSW 5.0mph /  8km/h 7.0mph /  11.3km/h 69% 0.00in /  0mm
01:19 68.3 °F /  20.2 °C 57.3 °F /  14.1 °C 29.95in /  1014.1hPa SW 3.0mph /  4.8km/h 7.0mph /  11.3km/h 68% 0.00in /  0mm
01:24 68.3 °F /  20.2 °C 57.3 °F /  14.1 °C 29.95in /  1014.1hPa SW 4.0mph /  6.4km/h 8.0mph /  12.9km/h 68% 0.00in /  0mm
01:29 68.4 °F /  20.2 °C 57.0 °F /  13.9 °C 29.95in /  1014.1hPa SW 4.0mph /  6.4km/h 8.0mph /  12.9km/h 67% 0.00in /  0mm
01:34 68.4 °F /  20.2 °C 57.0 °F /  13.9 °C 29.95in /  1014.1hPa WSW 4.0mph /  6.4km/h 5.0mph /  8km/h 67% 0.00in /  0mm
01:39 68.2 °F /  20.1 °C 56.8 °F /  13.8 °C 29.95in /  1014.1hPa SW 1.0mph /  1.6km/h 7.0mph /  11.3km/h 67% 0.00in /  0mm
01:44 68.0 °F /  20 °C 56.6 °F /  13.7 °C 29.95in /  1014.1hPa SW 2.0mph /  3.2km/h 7.0mph /  11.3km/h 67% 0.00in /  0mm
01:49 67.8 °F /  19.9 °C 56.4 °F /  13.6 °C 29.95in /  1014.1hPa SSW 2.0mph /  3.2km/h 5.0mph /  8km/h 67% 0.00in /  0mm
01:54 67.6 °F /  19.8 °C 56.2 °F /  13.4 °C 29.95in /  1014.1hPa SSW 2.0mph /  3.2km/h 4.0mph /  6.4km/h 67% 0.00in /  0mm
01:59 67.3 °F /  19.6 °C 56.4 °F /  13.6 °C 29.95in /  1014.1hPa Calm   4.0mph /  6.4km/h 68% 0.00in /  0mm
02:04 66.8 °F /  19.3 °C 56.3 °F /  13.5 °C 29.95in /  1014.1hPa Calm   2.0mph /  3.2km/h 69% 0.00in /  0mm
02:09 66.4 °F /  19.1 °C 56.3 °F /  13.5 °C 29.95in /  1014.1hPa Calm   4.0mph /  6.4km/h 70% 0.00in /  0mm
02:14 66.3 °F /  19.1 °C 56.2 °F /  13.4 °C 29.95in /  1014.1hPa SSW 1.0mph /  1.6km/h 4.0mph /  6.4km/h 70% 0.00in /  0mm
02:19 66.3 °F /  19.1 °C 56.2 °F /  13.4 °C 29.95in /  1014.1hPa SSW 1.0mph /  1.6km/h 5.0mph /  8km/h 70% 0.00in /  0mm
02:24 66.4 °F /  19.1 °C 56.3 °F /  13.5 °C 29.95in /  1014.1hPa SW 1.0mph /  1.6km/h 5.0mph /  8km/h 70% 0.00in /  0mm
02:29 66.7 °F /  19.3 °C 55.8 °F /  13.2 °C 29.95in /  1014.1hPa SW 1.0mph /  1.6km/h 4.0mph /  6.4km/h 68% 0.00in /  0mm
02:34 66.9 °F /  19.4 °C 56.0 °F /  13.3 °C 29.95in /  1014.1hPa SW 2.0mph /  3.2km/h 5.0mph /  8km/h 68% 0.00in /  0mm
02:39 67.0 °F /  19.4 °C 56.1 °F /  13.4 °C 29.95in /  1014.1hPa SSW 2.0mph /  3.2km/h 5.0mph /  8km/h 68% 0.00in /  0mm
02:44 67.0 °F /  19.4 °C 56.1 °F /  13.4 °C 29.95in /  1014.1hPa SSW 1.0mph /  1.6km/h 4.0mph /  6.4km/h 68% 0.00in /  0mm
02:49 67.0 °F /  19.4 °C 55.7 °F /  13.2 °C 29.95in /  1014.1hPa SSW 1.0mph /  1.6km/h 5.0mph /  8km/h 67% 0.00in /  0mm
02:54 67.1 °F /  19.5 °C 55.8 °F /  13.2 °C 29.94in /  1013.8hPa SW 2.0mph /  3.2km/h 5.0mph /  8km/h 67% 0.00in /  0mm
02:59 67.2 °F /  19.6 °C 55.9 °F /  13.3 °C 29.94in /  1013.8hPa SW 3.0mph /  4.8km/h 6.0mph /  9.7km/h 67% 0.00in /  0mm
03:04 67.2 °F /  19.6 °C 55.9 °F /  13.3 °C 29.94in /  1013.8hPa SW 2.0mph /  3.2km/h 7.0mph /  11.3km/h 67% 0.00in /  0mm
03:09 67.2 °F /  19.6 °C 55.9 °F /  13.3 °C 29.94in /  1013.8hPa SW 1.0mph /  1.6km/h 5.0mph /  8km/h 67% 0.00in /  0mm
03:14 67.2 °F /  19.6 °C 55.5 °F /  13.1 °C 29.94in /  1013.8hPa SW 3.0mph /  4.8km/h 6.0mph /  9.7km/h 66% 0.00in /  0mm
03:19 67.3 °F /  19.6 °C 55.5 °F /  13.1 °C 29.94in /  1013.8hPa SW 3.0mph /  4.8km/h 9.0mph /  14.5km/h 66% 0.00in /  0mm
03:24 67.3 °F /  19.6 °C 55.5 °F /  13.1 °C 29.94in /  1013.8hPa SW 4.0mph /  6.4km/h 5.0mph /  8km/h 66% 0.00in /  0mm
03:29 67.3 °F /  19.6 °C 55.1 °F /  12.8 °C 29.94in /  1013.8hPa SW 4.0mph /  6.4km/h 7.0mph /  11.3km/h 65% 0.00in /  0mm
03:34 67.3 °F /  19.6 °C 55.1 °F /  12.8 °C 29.94in /  1013.8hPa SW 4.0mph /  6.4km/h 5.0mph /  8km/h 65% 0.00in /  0mm
03:39 67.4 °F /  19.7 °C 55.2 °F /  12.9 °C 29.93in /  1013.4hPa SW 2.0mph /  3.2km/h 5.0mph /  8km/h 65% 0.00in /  0mm
03:44 67.5 °F /  19.7 °C 55.3 °F /  12.9 °C 29.93in /  1013.4hPa SW 2.0mph /  3.2km/h 8.0mph /  12.9km/h 65% 0.00in /  0mm
03:49 67.6 °F /  19.8 °C 55.0 °F /  12.8 °C 29.93in /  1013.4hPa SW 3.0mph /  4.8km/h 8.0mph /  12.9km/h 64% 0.00in /  0mm
03:54 67.7 °F /  19.8 °C 55.1 °F /  12.8 °C 29.93in /  1013.4hPa SW 3.0mph /  4.8km/h 7.0mph /  11.3km/h 64% 0.00in /  0mm
03:59 68.0 °F /  20 °C 55.4 °F /  13 °C 29.93in /  1013.4hPa SW 3.0mph /  4.8km/h 7.0mph /  11.3km/h 64% 0.00in /  0mm
04:04 68.3 °F /  20.2 °C 55.2 °F /  12.9 °C 29.93in /  1013.4hPa WSW 4.0mph /  6.4km/h 4.0mph /  6.4km/h 63% 0.00in /  0mm
04:09 68.4 °F /  20.2 °C 55.3 °F /  12.9 °C 29.93in /  1013.4hPa SW 2.0mph /  3.2km/h 6.0mph /  9.7km/h 63% 0.00in /  0mm
04:14 68.5 °F /  20.3 °C 55.4 °F /  13 °C 29.93in /  1013.4hPa WSW 1.0mph /  1.6km/h 4.0mph /  6.4km/h 63% 0.00in /  0mm
04:19 68.5 °F /  20.3 °C 55.4 °F /  13 °C 29.93in /  1013.4hPa Calm   6.0mph /  9.7km/h 63% 0.00in /  0mm
04:24 68.6 °F /  20.3 °C 55.5 °F /  13.1 °C 29.93in /  1013.4hPa WSW 1.0mph /  1.6km/h 4.0mph /  6.4km/h 63% 0.00in /  0mm
04:29 68.6 °F /  20.3 °C 55.5 °F /  13.1 °C 29.93in /  1013.4hPa WSW 4.0mph /  6.4km/h 5.0mph /  8km/h 63% 0.00in /  0mm
04:34 68.7 °F /  20.4 °C 55.2 °F /  12.9 °C 29.93in /  1013.4hPa SW 1.0mph /  1.6km/h 5.0mph /  8km/h 62% 0.00in /  0mm
04:39 68.7 °F /  20.4 °C 55.6 °F /  13.1 °C 29.93in /  1013.4hPa SW 1.0mph /  1.6km/h 5.0mph /  8km/h 63% 0.00in /  0mm
04:44 68.4 °F /  20.2 °C 55.3 °F /  12.9 °C 29.93in /  1013.4hPa SW 1.0mph /  1.6km/h 5.0mph /  8km/h 63% 0.00in /  0mm
04:49 68.3 °F /  20.2 °C 55.2 °F /  12.9 °C 29.93in /  1013.4hPa SW 1.0mph /  1.6km/h 4.0mph /  6.4km/h 63% 0.00in /  0mm
04:54 68.1 °F /  20.1 °C 55.5 °F /  13.1 °C 29.93in /  1013.4hPa SW 1.0mph /  1.6km/h 5.0mph /  8km/h 64% 0.00in /  0mm
04:59 67.9 °F /  19.9 °C 55.3 °F /  12.9 °C 29.93in /  1013.4hPa SW 2.0mph /  3.2km/h 5.0mph /  8km/h 64% 0.00in /  0mm
05:04 67.9 °F /  19.9 °C 55.3 °F /  12.9 °C 29.94in /  1013.8hPa SW 1.0mph /  1.6km/h 5.0mph /  8km/h 64% 0.00in /  0mm
05:09 68.0 °F /  20 °C 55.8 °F /  13.2 °C 29.94in /  1013.8hPa SW 5.0mph /  8km/h 5.0mph /  8km/h 65% 0.00in /  0mm
05:14 68.1 °F /  20.1 °C 55.5 °F /  13.1 °C 29.94in /  1013.8hPa SSW 1.0mph /  1.6km/h 5.0mph /  8km/h 64% 0.00in /  0mm
05:19 68.1 °F /  20.1 °C 55.5 °F /  13.1 °C 29.94in /  1013.8hPa SW 3.0mph /  4.8km/h 5.0mph /  8km/h 64% 0.00in /  0mm
05:24 68.1 °F /  20.1 °C 55.9 °F /  13.3 °C 29.94in /  1013.8hPa SW 5.0mph /  8km/h 5.0mph /  8km/h 65% 0.00in /  0mm
05:29 68.1 °F /  20.1 °C 55.9 °F /  13.3 °C 29.94in /  1013.8hPa SW 1.0mph /  1.6km/h 6.0mph /  9.7km/h 65% 0.00in /  0mm
05:34 68.1 °F /  20.1 °C 55.9 °F /  13.3 °C 29.93in /  1013.4hPa SSW 1.0mph /  1.6km/h 5.0mph /  8km/h 65% 0.00in /  0mm
05:39 68.0 °F /  20 °C 55.4 °F /  13 °C 29.93in /  1013.4hPa SSW 1.0mph /  1.6km/h 5.0mph /  8km/h 64% 0.00in /  0mm
05:44 68.0 °F /  20 °C 55.8 °F /  13.2 °C 29.93in /  1013.4hPa SW 1.0mph /  1.6km/h 5.0mph /  8km/h 65% 0.00in /  0mm
05:49 67.6 °F /  19.8 °C 55.4 °F /  13 °C 29.93in /  1013.4hPa SW 1.0mph /  1.6km/h 5.0mph /  8km/h 65% 0.00in /  0mm
05:54 67.3 °F /  19.6 °C 55.1 °F /  12.8 °C 29.93in /  1013.4hPa SW 1.0mph /  1.6km/h 4.0mph /  6.4km/h 65% 0.00in /  0mm
05:59 67.0 °F /  19.4 °C 54.8 °F /  12.7 °C 29.93in /  1013.4hPa SW 1.0mph /  1.6km/h 4.0mph /  6.4km/h 65% 0.00in /  0mm
06:04 66.5 °F /  19.2 °C 54.8 °F /  12.7 °C 29.93in /  1013.4hPa Calm   2.0mph /  3.2km/h 66% 0.00in /  0mm
06:09 66.0 °F /  18.9 °C 54.7 °F /  12.6 °C 29.94in /  1013.8hPa SW 1.0mph /  1.6km/h 2.0mph /  3.2km/h 67% 0.00in /  0mm
06:14 65.8 °F /  18.8 °C 54.9 °F /  12.7 °C 29.93in /  1013.4hPa SSW 2.0mph /  3.2km/h 7.0mph /  11.3km/h 68% 0.00in /  0mm
06:19 65.9 °F /  18.8 °C 55.0 °F /  12.8 °C 29.93in /  1013.4hPa Calm   5.0mph /  8km/h 68% 0.00in /  0mm
06:24 65.8 °F /  18.8 °C 54.9 °F /  12.7 °C 29.92in /  1013.1hPa Calm   7.0mph /  11.3km/h 68% 0.00in /  0mm
06:29 66.0 °F /  18.9 °C 55.1 °F /  12.8 °C 29.93in /  1013.4hPa SW 3.0mph /  4.8km/h 4.0mph /  6.4km/h 68% 0.00in /  0mm
06:34 66.5 °F /  19.2 °C 55.6 °F /  13.1 °C 29.93in /  1013.4hPa SW 1.0mph /  1.6km/h 4.0mph /  6.4km/h 68% 0.00in /  0mm
06:39 66.7 °F /  19.3 °C 55.4 °F /  13 °C 29.93in /  1013.4hPa SSW 1.0mph /  1.6km/h 5.0mph /  8km/h 67% 0.00in /  0mm
06:44 67.3 °F /  19.6 °C 56.0 °F /  13.3 °C 29.93in /  1013.4hPa SSW 2.0mph /  3.2km/h 5.0mph /  8km/h 67% 0.00in /  0mm
06:49 67.9 °F /  19.9 °C 55.7 °F /  13.2 °C 29.93in /  1013.4hPa SSW 3.0mph /  4.8km/h 6.0mph /  9.7km/h 65% 0.00in /  0mm
06:54 68.4 °F /  20.2 °C 56.2 °F /  13.4 °C 29.93in /  1013.4hPa SSW 3.0mph /  4.8km/h 7.0mph /  11.3km/h 65% 0.00in /  0mm
06:59 68.5 °F /  20.3 °C 55.8 °F /  13.2 °C 29.93in /  1013.4hPa SSW 3.0mph /  4.8km/h 7.0mph /  11.3km/h 64% 0.00in /  0mm
07:04 68.8 °F /  20.4 °C 55.7 °F /  13.2 °C 29.93in /  1013.4hPa SW 1.0mph /  1.6km/h 7.0mph /  11.3km/h 63% 0.00in /  0mm
07:09 68.9 °F /  20.5 °C 55.8 °F /  13.2 °C 29.93in /  1013.4hPa SSW 3.0mph /  4.8km/h 7.0mph /  11.3km/h 63% 0.00in /  0mm
07:14 69.0 °F /  20.6 °C 55.4 °F /  13 °C 29.93in /  1013.4hPa SSW 4.0mph /  6.4km/h 8.0mph /  12.9km/h 62% 0.00in /  0mm
07:19 69.3 °F /  20.7 °C 56.2 °F /  13.4 °C 29.93in /  1013.4hPa SW 3.0mph /  4.8km/h 5.0mph /  8km/h 63% 0.00in /  0mm
07:24 69.7 °F /  20.9 °C 55.6 °F /  13.1 °C 29.93in /  1013.4hPa SSE 4.0mph /  6.4km/h 9.0mph /  14.5km/h 61% 0.00in /  0mm
07:29 70.0 °F /  21.1 °C 55.9 °F /  13.3 °C 29.94in /  1013.8hPa SSW 5.0mph /  8km/h 8.0mph /  12.9km/h 61% 0.00in /  0mm
07:34 70.4 °F /  21.3 °C 55.8 °F /  13.2 °C 29.94in /  1013.8hPa SW 1.0mph /  1.6km/h 7.0mph /  11.3km/h 60% 0.00in /  0mm
07:39 70.8 °F /  21.6 °C 55.3 °F /  12.9 °C 29.94in /  1013.8hPa SW 4.0mph /  6.4km/h 9.0mph /  14.5km/h 58% 0.00in /  0mm
07:44 71.2 °F /  21.8 °C 56.1 °F /  13.4 °C 29.94in /  1013.8hPa SW 4.0mph /  6.4km/h 10.0mph /  16.1km/h 59% 0.00in /  0mm
07:49 71.5 °F /  21.9 °C 55.9 °F /  13.3 °C 29.94in /  1013.8hPa SW 5.0mph /  8km/h 10.0mph /  16.1km/h 58% 0.00in /  0mm
07:54 71.7 °F /  22.1 °C 56.1 °F /  13.4 °C 29.94in /  1013.8hPa SW 5.0mph /  8km/h 14.0mph /  22.5km/h 58% 0.00in /  0mm
07:59 72.1 °F /  22.3 °C 55.5 °F /  13.1 °C 29.94in /  1013.8hPa WSW 5.0mph /  8km/h 9.0mph /  14.5km/h 56% 0.00in /  0mm
08:04 72.2 °F /  22.3 °C 56.1 °F /  13.4 °C 29.94in /  1013.8hPa SW 3.0mph /  4.8km/h 9.0mph /  14.5km/h 57% 0.00in /  0mm
08:09 72.6 °F /  22.6 °C 56.0 °F /  13.3 °C 29.94in /  1013.8hPa SW 4.0mph /  6.4km/h 10.0mph /  16.1km/h 56% 0.00in /  0mm
08:14 72.9 °F /  22.7 °C 56.3 °F /  13.5 °C 29.94in /  1013.8hPa SW 5.0mph /  8km/h 10.0mph /  16.1km/h 56% 0.00in /  0mm
08:19 73.1 °F /  22.8 °C 55.5 °F /  13.1 °C 29.94in /  1013.8hPa SW 5.0mph /  8km/h 12.0mph /  19.3km/h 54% 0.00in /  0mm
08:24 73.2 °F /  22.9 °C 56.1 °F /  13.4 °C 29.94in /  1013.8hPa SSW 3.0mph /  4.8km/h 11.0mph /  17.7km/h 55% 0.00in /  0mm
08:29 73.4 °F /  23 °C 56.2 °F /  13.4 °C 29.94in /  1013.8hPa SW 7.0mph /  11.3km/h 8.0mph /  12.9km/h 55% 0.00in /  0mm
08:34 73.4 °F /  23 °C 56.2 °F /  13.4 °C 29.93in /  1013.4hPa WSW 4.0mph /  6.4km/h 15.0mph /  24.1km/h 55% 0.00in /  0mm
08:39 73.5 °F /  23.1 °C 56.8 °F /  13.8 °C 29.94in /  1013.8hPa SW 5.0mph /  8km/h 15.0mph /  24.1km/h 56% 0.00in /  0mm
08:44 72.9 °F /  22.7 °C 55.8 °F /  13.2 °C 29.94in /  1013.8hPa SW 6.0mph /  9.7km/h 14.0mph /  22.5km/h 55% 0.00in /  0mm
08:49 72.4 °F /  22.4 °C 56.3 °F /  13.5 °C 29.94in /  1013.8hPa SW 9.0mph /  14.5km/h 12.0mph /  19.3km/h 57% 0.00in /  0mm
08:54 72.3 °F /  22.4 °C 56.7 °F /  13.7 °C 29.94in /  1013.8hPa SSW 7.0mph /  11.3km/h 10.0mph /  16.1km/h 58% 0.00in /  0mm
08:59 72.8 °F /  22.7 °C 56.7 °F /  13.7 °C 29.94in /  1013.8hPa WSW 6.0mph /  9.7km/h 9.0mph /  14.5km/h 57% 0.00in /  0mm
09:04 73.1 °F /  22.8 °C 57.4 °F /  14.1 °C 29.94in /  1013.8hPa SW 9.0mph /  14.5km/h 10.0mph /  16.1km/h 58% 0.00in /  0mm
09:09 73.1 °F /  22.8 °C 56.5 °F /  13.6 °C 29.94in /  1013.8hPa SW 6.0mph /  9.7km/h 12.0mph /  19.3km/h 56% 0.00in /  0mm
09:14 74.0 °F /  23.3 °C 56.8 °F /  13.8 °C 29.94in /  1013.8hPa SW 6.0mph /  9.7km/h 12.0mph /  19.3km/h 55% 0.00in /  0mm
09:19 73.9 °F /  23.3 °C 56.2 °F /  13.4 °C 29.94in /  1013.8hPa SW 6.0mph /  9.7km/h 13.0mph /  20.9km/h 54% 0.00in /  0mm
09:24 73.5 °F /  23.1 °C 56.3 °F /  13.5 °C 29.93in /  1013.4hPa SW 6.0mph /  9.7km/h 13.0mph /  20.9km/h 55% 0.00in /  0mm
09:29 73.3 °F /  22.9 °C 55.6 °F /  13.1 °C 29.93in /  1013.4hPa SW 6.0mph /  9.7km/h 12.0mph /  19.3km/h 54% 0.00in /  0mm
09:34 73.3 °F /  22.9 °C 56.2 °F /  13.4 °C 29.94in /  1013.8hPa SW 5.0mph /  8km/h 10.0mph /  16.1km/h 55% 0.00in /  0mm
09:39 73.8 °F /  23.2 °C 56.1 °F /  13.4 °C 29.94in /  1013.8hPa SW 8.0mph /  12.9km/h 13.0mph /  20.9km/h 54% 0.00in /  0mm
09:44 74.3 °F /  23.5 °C 56.6 °F /  13.7 °C 29.94in /  1013.8hPa SW 7.0mph /  11.3km/h 14.0mph /  22.5km/h 54% 0.00in /  0mm
09:49 74.5 °F /  23.6 °C 56.2 °F /  13.4 °C 29.94in /  1013.8hPa SW 7.0mph /  11.3km/h 14.0mph /  22.5km/h 53% 0.00in /  0mm
09:54 75.0 °F /  23.9 °C 57.7 °F /  14.3 °C 29.94in /  1013.8hPa SW 5.0mph /  8km/h 11.0mph /  17.7km/h 55% 0.00in /  0mm
09:59 75.7 °F /  24.3 °C 57.9 °F /  14.4 °C 29.93in /  1013.4hPa SW 3.0mph /  4.8km/h 8.0mph /  12.9km/h 54% 0.00in /  0mm
10:04 76.2 °F /  24.6 °C 57.8 °F /  14.3 °C 29.93in /  1013.4hPa SW 7.0mph /  11.3km/h 10.0mph /  16.1km/h 53% 0.00in /  0mm
10:09 76.4 °F /  24.7 °C 58.0 °F /  14.4 °C 29.93in /  1013.4hPa West 11.0mph /  17.7km/h 13.0mph /  20.9km/h 53% 0.00in /  0mm
10:14 76.7 °F /  24.8 °C 58.3 °F /  14.6 °C 29.93in /  1013.4hPa SW 5.0mph /  8km/h 13.0mph /  20.9km/h 53% 0.00in /  0mm
10:19 76.8 °F /  24.9 °C 58.4 °F /  14.7 °C 29.93in /  1013.4hPa SW 6.0mph /  9.7km/h 12.0mph /  19.3km/h 53% 0.00in /  0mm
10:24 76.7 °F /  24.8 °C 57.7 °F /  14.3 °C 29.94in /  1013.8hPa SW 6.0mph /  9.7km/h 12.0mph /  19.3km/h 52% 0.00in /  0mm
10:29 76.5 °F /  24.7 °C 56.5 °F /  13.6 °C 29.94in /  1013.8hPa WSW 6.0mph /  9.7km/h 12.0mph /  19.3km/h 50% 0.00in /  0mm
10:34 76.2 °F /  24.6 °C 56.2 °F /  13.4 °C 29.93in /  1013.4hPa WSW 6.0mph /  9.7km/h 16.0mph /  25.7km/h 50% 0.00in /  0mm
10:39 76.2 °F /  24.6 °C 56.7 °F /  13.7 °C 29.93in /  1013.4hPa WSW 7.0mph /  11.3km/h 16.0mph /  25.7km/h 51% 0.00in /  0mm
10:44 77.2 °F /  25.1 °C 57.1 °F /  13.9 °C 29.93in /  1013.4hPa West 3.0mph /  4.8km/h 9.0mph /  14.5km/h 50% 0.00in /  0mm
10:49 77.7 °F /  25.4 °C 57.0 °F /  13.9 °C 29.93in /  1013.4hPa WSW 8.0mph /  12.9km/h 15.0mph /  24.1km/h 49% 0.00in /  0mm
10:54 78.4 °F /  25.8 °C 57.1 °F /  13.9 °C 29.93in /  1013.4hPa SW 6.0mph /  9.7km/h 12.0mph /  19.3km/h 48% 0.00in /  0mm
10:59 77.5 °F /  25.3 °C 56.3 °F /  13.5 °C 29.93in /  1013.4hPa SW 9.0mph /  14.5km/h 15.0mph /  24.1km/h 48% 0.00in /  0mm
11:04 76.9 °F /  24.9 °C 56.8 °F /  13.8 °C 29.94in /  1013.8hPa SW 7.0mph /  11.3km/h 15.0mph /  24.1km/h 50% 0.00in /  0mm
11:09 77.8 °F /  25.4 °C 57.7 °F /  14.3 °C 29.93in /  1013.4hPa West 8.0mph /  12.9km/h 15.0mph /  24.1km/h 50% 0.00in /  0mm
11:14 78.0 °F /  25.6 °C 57.3 °F /  14.1 °C 29.93in /  1013.4hPa WSW 8.0mph /  12.9km/h 16.0mph /  25.7km/h 49% 0.00in /  0mm
11:19 78.3 °F /  25.7 °C 58.1 °F /  14.5 °C 29.93in /  1013.4hPa WSW 8.0mph /  12.9km/h 16.0mph /  25.7km/h 50% 0.00in /  0mm
11:24 79.0 °F /  26.1 °C 59.3 °F /  15.2 °C 29.93in /  1013.4hPa WSW 7.0mph /  11.3km/h 13.0mph /  20.9km/h 51% 0.00in /  0mm
11:29 79.3 °F /  26.3 °C 59.0 °F /  15 °C 29.93in /  1013.4hPa WSW 6.0mph /  9.7km/h 13.0mph /  20.9km/h 50% 0.00in /  0mm
11:34 78.6 °F /  25.9 °C 57.8 °F /  14.3 °C 29.93in /  1013.4hPa West 5.0mph /  8km/h 14.0mph /  22.5km/h 49% 0.00in /  0mm
11:39 78.4 °F /  25.8 °C 58.2 °F /  14.6 °C 29.93in /  1013.4hPa SSW 7.0mph /  11.3km/h 11.0mph /  17.7km/h 50% 0.00in /  0mm
11:44 78.4 °F /  25.8 °C 58.8 °F /  14.9 °C 29.93in /  1013.4hPa SW 6.0mph /  9.7km/h 14.0mph /  22.5km/h 51% 0.00in /  0mm
11:49 78.1 °F /  25.6 °C 58.5 °F /  14.7 °C 29.93in /  1013.4hPa SW 6.0mph /  9.7km/h 14.0mph /  22.5km/h 51% 0.00in /  0mm
11:54 78.4 °F /  25.8 °C 58.8 °F /  14.9 °C 29.94in /  1013.8hPa SW 6.0mph /  9.7km/h 14.0mph /  22.5km/h 51% 0.00in /  0mm
11:59 78.8 °F /  26 °C 60.2 °F /  15.7 °C 29.93in /  1013.4hPa SW 6.0mph /  9.7km/h 12.0mph /  19.3km/h 53% 0.00in /  0mm
12:04 78.7 °F /  25.9 °C 59.0 °F /  15 °C 29.94in /  1013.8hPa WNW 7.0mph /  11.3km/h 12.0mph /  19.3km/h 51% 0.00in /  0mm
12:09 78.8 °F /  26 °C 58.6 °F /  14.8 °C 29.94in /  1013.8hPa West 5.0mph /  8km/h 14.0mph /  22.5km/h 50% 0.00in /  0mm
12:14 78.3 °F /  25.7 °C 58.7 °F /  14.8 °C 29.94in /  1013.8hPa WSW 6.0mph /  9.7km/h 14.0mph /  22.5km/h 51% 0.00in /  0mm
12:19 78.4 °F /  25.8 °C 59.3 °F /  15.2 °C 29.93in /  1013.4hPa WSW 6.0mph /  9.7km/h 14.0mph /  22.5km/h 52% 0.00in /  0mm
12:24 77.7 °F /  25.4 °C 59.2 °F /  15.1 °C 29.93in /  1013.4hPa WSW 6.0mph /  9.7km/h 15.0mph /  24.1km/h 53% 0.00in /  0mm
12:29 77.4 °F /  25.2 °C 59.5 °F /  15.3 °C 29.93in /  1013.4hPa South 7.0mph /  11.3km/h 13.0mph /  20.9km/h 54% 0.00in /  0mm
12:34 77.3 °F /  25.2 °C 59.4 °F /  15.2 °C 29.93in /  1013.4hPa WSW 10.0mph /  16.1km/h 16.0mph /  25.7km/h 54% 0.00in /  0mm
12:39 77.7 °F /  25.4 °C 61.3 °F /  16.3 °C 29.93in /  1013.4hPa WSW 9.0mph /  14.5km/h 13.0mph /  20.9km/h 57% 0.00in /  0mm
12:44 77.4 °F /  25.2 °C 60.5 °F /  15.8 °C 29.93in /  1013.4hPa WSW 7.0mph /  11.3km/h 13.0mph /  20.9km/h 56% 0.00in /  0mm
12:49 77.5 °F /  25.3 °C 61.1 °F /  16.2 °C 29.93in /  1013.4hPa WSW 7.0mph /  11.3km/h 14.0mph /  22.5km/h 57% 0.00in /  0mm
12:54 77.7 °F /  25.4 °C 61.3 °F /  16.3 °C 29.92in /  1013.1hPa WSW 7.0mph /  11.3km/h 15.0mph /  24.1km/h 57% 0.00in /  0mm
12:59 77.8 °F /  25.4 °C 61.3 °F /  16.3 °C 29.93in /  1013.4hPa WSW 6.0mph /  9.7km/h 15.0mph /  24.1km/h 57% 0.00in /  0mm
13:04 78.9 °F /  26.1 °C 61.4 °F /  16.3 °C 29.93in /  1013.4hPa WSW 6.0mph /  9.7km/h 14.0mph /  22.5km/h 55% 0.00in /  0mm
13:09 78.3 °F /  25.7 °C 61.3 °F /  16.3 °C 29.93in /  1013.4hPa WSW 7.0mph /  11.3km/h 14.0mph /  22.5km/h 56% 0.00in /  0mm
13:14 78.4 °F /  25.8 °C 61.9 °F /  16.6 °C 29.93in /  1013.4hPa SW 7.0mph /  11.3km/h 14.0mph /  22.5km/h 57% 0.00in /  0mm
13:19 78.4 °F /  25.8 °C 62.4 °F /  16.9 °C 29.93in /  1013.4hPa WSW 7.0mph /  11.3km/h 14.0mph /  22.5km/h 58% 0.00in /  0mm
13:24 78.7 °F /  25.9 °C 63.2 °F /  17.3 °C 29.93in /  1013.4hPa West 4.0mph /  6.4km/h 18.0mph /  29km/h 59% 0.00in /  0mm
13:29 77.8 °F /  25.4 °C 62.3 °F /  16.8 °C 29.93in /  1013.4hPa West 9.0mph /  14.5km/h 12.0mph /  19.3km/h 59% 0.00in /  0mm
13:34 76.8 °F /  24.9 °C 61.9 °F /  16.6 °C 29.93in /  1013.4hPa West 4.0mph /  6.4km/h 13.0mph /  20.9km/h 60% 0.00in /  0mm
13:39 76.8 °F /  24.9 °C 61.4 °F /  16.3 °C 29.93in /  1013.4hPa WSW 12.0mph /  19.3km/h 15.0mph /  24.1km/h 59% 0.00in /  0mm
13:44 76.2 °F /  24.6 °C 61.8 °F /  16.6 °C 29.93in /  1013.4hPa WSW 9.0mph /  14.5km/h 13.0mph /  20.9km/h 61% 0.00in /  0mm
13:49 75.9 °F /  24.4 °C 61.5 °F /  16.4 °C 29.93in /  1013.4hPa WSW 7.0mph /  11.3km/h 13.0mph /  20.9km/h 61% 0.00in /  0mm
13:54 76.3 °F /  24.6 °C 61.9 °F /  16.6 °C 29.93in /  1013.4hPa SW 6.0mph /  9.7km/h 12.0mph /  19.3km/h 61% 0.00in /  0mm
13:59 76.3 °F /  24.6 °C 62.3 °F /  16.8 °C 29.93in /  1013.4hPa WSW 6.0mph /  9.7km/h 13.0mph /  20.9km/h 62% 0.00in /  0mm
14:04 76.6 °F /  24.8 °C 61.7 °F /  16.5 °C 29.93in /  1013.4hPa WSW 6.0mph /  9.7km/h 14.0mph /  22.5km/h 60% 0.00in /  0mm
14:09 76.5 °F /  24.7 °C 61.6 °F /  16.4 °C 29.93in /  1013.4hPa WSW 6.0mph /  9.7km/h 14.0mph /  22.5km/h 60% 0.00in /  0mm
14:14 76.8 °F /  24.9 °C 62.3 °F /  16.8 °C 29.93in /  1013.4hPa West 3.0mph /  4.8km/h 12.0mph /  19.3km/h 61% 0.00in /  0mm
14:19 76.4 °F /  24.7 °C 61.5 °F /  16.4 °C 29.93in /  1013.4hPa SW 3.0mph /  4.8km/h 14.0mph /  22.5km/h 60% 0.00in /  0mm
14:24 76.1 °F /  24.5 °C 61.7 °F /  16.5 °C 29.92in /  1013.1hPa SW 5.0mph /  8km/h 16.0mph /  25.7km/h 61% 0.00in /  0mm
14:29 76.3 °F /  24.6 °C 62.3 °F /  16.8 °C 29.92in /  1013.1hPa WSW 4.0mph /  6.4km/h 13.0mph /  20.9km/h 62% 0.00in /  0mm
14:34 77.2 °F /  25.1 °C 63.2 °F /  17.3 °C 29.92in /  1013.1hPa WNW 7.0mph /  11.3km/h 8.0mph /  12.9km/h 62% 0.00in /  0mm
14:39 77.2 °F /  25.1 °C 62.7 °F /  17.1 °C 29.92in /  1013.1hPa SSE 5.0mph /  8km/h 12.0mph /  19.3km/h 61% 0.00in /  0mm
14:44 77.6 °F /  25.3 °C 63.5 °F /  17.5 °C 29.92in /  1013.1hPa WSW 5.0mph /  8km/h 9.0mph /  14.5km/h 62% 0.00in /  0mm
14:49 77.3 °F /  25.2 °C 63.3 °F /  17.4 °C 29.92in /  1013.1hPa SW 5.0mph /  8km/h 12.0mph /  19.3km/h 62% 0.00in /  0mm
14:54 77.0 °F /  25 °C 63.4 °F /  17.4 °C 29.92in /  1013.1hPa SW 5.0mph /  8km/h 13.0mph /  20.9km/h 63% 0.00in /  0mm
14:59 76.6 °F /  24.8 °C 63.1 °F /  17.3 °C 29.92in /  1013.1hPa WSW 5.0mph /  8km/h 13.0mph /  20.9km/h 63% 0.00in /  0mm
15:04 76.3 °F /  24.6 °C 63.2 °F /  17.3 °C 29.92in /  1013.1hPa WSW 5.0mph /  8km/h 10.0mph /  16.1km/h 64% 0.00in /  0mm
15:09 75.8 °F /  24.3 °C 63.2 °F /  17.3 °C 29.92in /  1013.1hPa WSW 4.0mph /  6.4km/h 10.0mph /  16.1km/h 65% 0.00in /  0mm
15:14 75.4 °F /  24.1 °C 63.7 °F /  17.6 °C 29.92in /  1013.1hPa SW 6.0mph /  9.7km/h 14.0mph /  22.5km/h 67% 0.00in /  0mm
15:19 75.1 °F /  23.9 °C 63.4 °F /  17.4 °C 29.92in /  1013.1hPa WSW 6.0mph /  9.7km/h 14.0mph /  22.5km/h 67% 0.00in /  0mm
15:24 74.6 °F /  23.7 °C 63.8 °F /  17.7 °C 29.92in /  1013.1hPa WSW 7.0mph /  11.3km/h 13.0mph /  20.9km/h 69% 0.00in /  0mm
15:29 74.6 °F /  23.7 °C 63.8 °F /  17.7 °C 29.92in /  1013.1hPa WSW 8.0mph /  12.9km/h 9.0mph /  14.5km/h 69% 0.00in /  0mm
15:34 74.2 °F /  23.4 °C 63.8 °F /  17.7 °C 29.92in /  1013.1hPa West 4.0mph /  6.4km/h 11.0mph /  17.7km/h 70% 0.00in /  0mm
15:39 73.8 °F /  23.2 °C 63.8 °F /  17.7 °C 29.91in /  1012.8hPa SW 5.0mph /  8km/h 11.0mph /  17.7km/h 71% 0.00in /  0mm
15:44 72.8 °F /  22.7 °C 64.0 °F /  17.8 °C 29.91in /  1012.8hPa WSW 2.0mph /  3.2km/h 9.0mph /  14.5km/h 74% 0.00in /  0mm
15:49 72.1 °F /  22.3 °C 64.5 °F /  18.1 °C 29.91in /  1012.8hPa WSW 4.0mph /  6.4km/h 9.0mph /  14.5km/h 77% 0.00in /  0mm
15:54 71.5 °F /  21.9 °C 64.3 °F /  17.9 °C 29.91in /  1012.8hPa West 4.0mph /  6.4km/h 8.0mph /  12.9km/h 78% 0.00in /  0mm
15:59 71.4 °F /  21.9 °C 64.9 °F /  18.3 °C 29.91in /  1012.8hPa WSW 4.0mph /  6.4km/h 8.0mph /  12.9km/h 80% 0.00in /  0mm
16:04 71.4 °F /  21.9 °C 64.9 °F /  18.3 °C 29.91in /  1012.8hPa West 5.0mph /  8km/h 5.0mph /  8km/h 80% 0.00in /  0mm
16:09 71.7 °F /  22.1 °C 64.8 °F /  18.2 °C 29.91in /  1012.8hPa SW 3.0mph /  4.8km/h 9.0mph /  14.5km/h 79% 0.00in /  0mm
16:14 72.0 °F /  22.2 °C 64.8 °F /  18.2 °C 29.91in /  1012.8hPa WSW 2.0mph /  3.2km/h 9.0mph /  14.5km/h 78% 0.00in /  0mm
16:19 72.4 °F /  22.4 °C 64.8 °F /  18.2 °C 29.91in /  1012.8hPa WSW 3.0mph /  4.8km/h 9.0mph /  14.5km/h 77% 0.00in /  0mm
16:24 72.9 °F /  22.7 °C 65.3 °F /  18.5 °C 29.91in /  1012.8hPa WSW 3.0mph /  4.8km/h 7.0mph /  11.3km/h 77% 0.00in /  0mm
16:29 73.3 °F /  22.9 °C 64.5 °F /  18.1 °C 29.90in /  1012.4hPa WSW 3.0mph /  4.8km/h 7.0mph /  11.3km/h 74% 0.00in /  0mm
16:34 73.5 °F /  23.1 °C 64.7 °F /  18.2 °C 29.90in /  1012.4hPa WSW 3.0mph /  4.8km/h 9.0mph /  14.5km/h 74% 0.00in /  0mm
16:39 73.8 °F /  23.2 °C 63.8 °F /  17.7 °C 29.90in /  1012.4hPa West 3.0mph /  4.8km/h 9.0mph /  14.5km/h 71% 0.00in /  0mm
16:44 73.9 °F /  23.3 °C 63.5 °F /  17.5 °C 29.90in /  1012.4hPa SW 3.0mph /  4.8km/h 7.0mph /  11.3km/h 70% 0.00in /  0mm
16:49 74.0 °F /  23.3 °C 63.6 °F /  17.6 °C 29.90in /  1012.4hPa WSW 3.0mph /  4.8km/h 7.0mph /  11.3km/h 70% 0.00in /  0mm
16:54 74.2 °F /  23.4 °C 63.8 °F /  17.7 °C 29.90in /  1012.4hPa WSW 2.0mph /  3.2km/h 6.0mph /  9.7km/h 70% 0.00in /  0mm
16:59 74.3 °F /  23.5 °C 63.9 °F /  17.7 °C 29.89in /  1012.1hPa WNW 4.0mph /  6.4km/h 6.0mph /  9.7km/h 70% 0.00in /  0mm
17:04 74.3 °F /  23.5 °C 63.9 °F /  17.7 °C 29.89in /  1012.1hPa WNW 5.0mph /  8km/h 6.0mph /  9.7km/h 70% 0.00in /  0mm
17:09 74.0 °F /  23.3 °C 63.6 °F /  17.6 °C 29.89in /  1012.1hPa West 4.0mph /  6.4km/h 6.0mph /  9.7km/h 70% 0.00in /  0mm
17:14 73.9 °F /  23.3 °C 63.5 °F /  17.5 °C 29.89in /  1012.1hPa WNW 6.0mph /  9.7km/h 6.0mph /  9.7km/h 70% 0.00in /  0mm
17:19 74.0 °F /  23.3 °C 64.0 °F /  17.8 °C 29.89in /  1012.1hPa West 3.0mph /  4.8km/h 6.0mph /  9.7km/h 71% 0.00in /  0mm
17:24 74.0 °F /  23.3 °C 64.0 °F /  17.8 °C 29.89in /  1012.1hPa West 3.0mph /  4.8km/h 6.0mph /  9.7km/h 71% 0.00in /  0mm
17:29 73.9 °F /  23.3 °C 63.9 °F /  17.7 °C 29.89in /  1012.1hPa West 2.0mph /  3.2km/h 5.0mph /  8km/h 71% 0.00in /  0mm
17:34 74.0 °F /  23.3 °C 63.6 °F /  17.6 °C 29.89in /  1012.1hPa West 2.0mph /  3.2km/h 5.0mph /  8km/h 70% 0.00in /  0mm
17:39 73.7 °F /  23.2 °C 64.1 °F /  17.8 °C 29.89in /  1012.1hPa SSW 3.0mph /  4.8km/h 5.0mph /  8km/h 72% 0.00in /  0mm
17:44 73.1 °F /  22.8 °C 64.3 °F /  17.9 °C 29.90in /  1012.4hPa SW 4.0mph /  6.4km/h 13.0mph /  20.9km/h 74% 0.00in /  0mm
17:49 71.7 °F /  22.1 °C 64.1 °F /  17.8 °C 29.90in /  1012.4hPa SW 5.0mph /  8km/h 13.0mph /  20.9km/h 77% 0.04in /  1.02mm
17:54 70.2 °F /  21.2 °C 64.1 °F /  17.8 °C 29.90in /  1012.4hPa SSW 4.0mph /  6.4km/h 8.0mph /  12.9km/h 81% 0.05in /  1.27mm
17:59 69.3 °F /  20.7 °C 63.9 °F /  17.7 °C 29.89in /  1012.1hPa SW 4.0mph /  6.4km/h 5.0mph /  8km/h 83% 0.06in /  1.52mm
18:04 69.1 °F /  20.6 °C 64.4 °F /  18 °C 29.89in /  1012.1hPa South 3.0mph /  4.8km/h 6.0mph /  9.7km/h 85% 0.06in /  1.52mm
18:09 69.1 °F /  20.6 °C 64.7 °F /  18.2 °C 29.89in /  1012.1hPa SW 2.0mph /  3.2km/h 5.0mph /  8km/h 86% 0.06in /  1.52mm
18:14 69.0 °F /  20.6 °C 65.0 °F /  18.3 °C 29.89in /  1012.1hPa SSW 3.0mph /  4.8km/h 4.0mph /  6.4km/h 87% 0.07in /  1.78mm
18:19 68.9 °F /  20.5 °C 64.9 °F /  18.3 °C 29.89in /  1012.1hPa SSW 2.0mph /  3.2km/h 4.0mph /  6.4km/h 87% 0.07in /  1.78mm
18:24 68.9 °F /  20.5 °C 65.2 °F /  18.4 °C 29.89in /  1012.1hPa SSW 1.0mph /  1.6km/h 4.0mph /  6.4km/h 88% 0.08in /  2.03mm
18:29 68.8 °F /  20.4 °C 65.1 °F /  18.4 °C 29.89in /  1012.1hPa SSW 1.0mph /  1.6km/h 4.0mph /  6.4km/h 88% 0.09in /  2.29mm
18:34 68.7 °F /  20.4 °C 65.0 °F /  18.3 °C 29.88in /  1011.7hPa SSW 1.0mph /  1.6km/h 4.0mph /  6.4km/h 88% 0.10in /  2.54mm
18:39 68.8 °F /  20.4 °C 65.4 °F /  18.6 °C 29.88in /  1011.7hPa Calm     89% 0.11in /  2.79mm
18:44 68.7 °F /  20.4 °C 65.3 °F /  18.5 °C 29.88in /  1011.7hPa Calm     89% 0.11in /  2.79mm
18:49 68.9 °F /  20.5 °C 65.5 °F /  18.6 °C 29.88in /  1011.7hPa Calm     89% 0.08in /  2.03mm
18:54 68.8 °F /  20.4 °C 65.4 °F /  18.6 °C 29.89in /  1012.1hPa Calm   3.0mph /  4.8km/h 89% 0.07in /  1.78mm
18:59 68.7 °F /  20.4 °C 65.3 °F /  18.5 °C 29.89in /  1012.1hPa South 1.0mph /  1.6km/h 5.0mph /  8km/h 89% 0.06in /  1.52mm
19:04 68.6 °F /  20.3 °C 65.2 °F /  18.4 °C 29.89in /  1012.1hPa South 1.0mph /  1.6km/h 5.0mph /  8km/h 89% 0.07in /  1.78mm
19:09 68.6 °F /  20.3 °C 65.2 °F /  18.4 °C 29.89in /  1012.1hPa SSE 1.0mph /  1.6km/h 4.0mph /  6.4km/h 89% 0.07in /  1.78mm
19:14 68.5 °F /  20.3 °C 65.4 °F /  18.6 °C 29.89in /  1012.1hPa SSE 3.0mph /  4.8km/h 6.0mph /  9.7km/h 90% 0.06in /  1.52mm
19:19 68.5 °F /  20.3 °C 65.4 °F /  18.6 °C 29.89in /  1012.1hPa SSE 1.0mph /  1.6km/h 4.0mph /  6.4km/h 90% 0.07in /  1.78mm
19:24 68.6 °F /  20.3 °C 65.5 °F /  18.6 °C 29.89in /  1012.1hPa SSE 1.0mph /  1.6km/h 4.0mph /  6.4km/h 90% 0.06in /  1.52mm
19:29 68.6 °F /  20.3 °C 65.5 °F /  18.6 °C 29.88in /  1011.7hPa Calm   3.0mph /  4.8km/h 90% 0.05in /  1.27mm
19:34 68.6 °F /  20.3 °C 65.5 °F /  18.6 °C 29.88in /  1011.7hPa Calm   3.0mph /  4.8km/h 90% 0.04in /  1.02mm
19:39 68.7 °F /  20.4 °C 65.6 °F /  18.7 °C 29.88in /  1011.7hPa SSE 1.0mph /  1.6km/h 4.0mph /  6.4km/h 90% 0.03in /  0.76mm
19:44 68.7 °F /  20.4 °C 65.6 °F /  18.7 °C 29.88in /  1011.7hPa SE 1.0mph /  1.6km/h 4.0mph /  6.4km/h 90% 0.03in /  0.76mm
19:49 68.8 °F /  20.4 °C 65.7 °F /  18.7 °C 29.88in /  1011.7hPa SSE 1.0mph /  1.6km/h 5.0mph /  8km/h 90% 0.02in /  0.51mm
19:54 68.7 °F /  20.4 °C 65.6 °F /  18.7 °C 29.89in /  1012.1hPa SSE 2.0mph /  3.2km/h 5.0mph /  8km/h 90% 0.02in /  0.51mm
19:59 68.7 °F /  20.4 °C 65.6 °F /  18.7 °C 29.88in /  1011.7hPa SSE 1.0mph /  1.6km/h 5.0mph /  8km/h 90% 0.02in /  0.51mm
20:04 68.8 °F /  20.4 °C 65.7 °F /  18.7 °C 29.88in /  1011.7hPa Calm   4.0mph /  6.4km/h 90% 0.01in /  0.25mm
20:09 68.7 °F /  20.4 °C 66.0 °F /  18.9 °C 29.88in /  1011.7hPa Calm     91% 0.01in /  0.25mm
20:14 68.6 °F /  20.3 °C 65.5 °F /  18.6 °C 29.88in /  1011.7hPa Calm   4.0mph /  6.4km/h 90% 0.01in /  0.25mm
20:19 68.6 °F /  20.3 °C 65.9 °F /  18.8 °C 29.88in /  1011.7hPa SE 1.0mph /  1.6km/h 4.0mph /  6.4km/h 91% 0.00in /  0mm
20:24 68.6 °F /  20.3 °C 65.9 °F /  18.8 °C 29.88in /  1011.7hPa Calm   1.0mph /  1.6km/h 91% 0.00in /  0mm
20:29 68.6 °F /  20.3 °C 65.5 °F /  18.6 °C 29.88in /  1011.7hPa SE 2.0mph /  3.2km/h 3.0mph /  4.8km/h 90% 0.00in /  0mm
20:34 68.6 °F /  20.3 °C 65.9 °F /  18.8 °C 29.88in /  1011.7hPa SE 1.0mph /  1.6km/h 3.0mph /  4.8km/h 91% 0.00in /  0mm
20:39 68.6 °F /  20.3 °C 65.5 °F /  18.6 °C 29.88in /  1011.7hPa Calm   1.0mph /  1.6km/h 90% 0.00in /  0mm
20:44 68.6 °F /  20.3 °C 65.9 °F /  18.8 °C 29.88in /  1011.7hPa Calm   1.0mph /  1.6km/h 91% 0.00in /  0mm
20:49 68.5 °F /  20.3 °C 65.8 °F /  18.8 °C 29.88in /  1011.7hPa Calm     91% 0.00in /  0mm
20:54 68.5 °F /  20.3 °C 65.8 °F /  18.8 °C 29.88in /  1011.7hPa Calm     91% 0.00in /  0mm
20:59 68.5 °F /  20.3 °C 65.4 °F /  18.6 °C 29.88in /  1011.7hPa Calm     90% 0.00in /  0mm
21:04 68.3 °F /  20.2 °C 65.3 °F /  18.5 °C 29.88in /  1011.7hPa Calm   2.0mph /  3.2km/h 90% 0.00in /  0mm
21:09 68.3 °F /  20.2 °C 65.3 °F /  18.5 °C 29.88in /  1011.7hPa SSE 1.0mph /  1.6km/h 3.0mph /  4.8km/h 90% 0.00in /  0mm
21:14 68.3 °F /  20.2 °C 65.3 °F /  18.5 °C 29.88in /  1011.7hPa Calm   3.0mph /  4.8km/h 90% 0.00in /  0mm
21:19 68.4 °F /  20.2 °C 65.4 °F /  18.6 °C 29.87in /  1011.4hPa Calm   3.0mph /  4.8km/h 90% 0.00in /  0mm
21:24 68.3 °F /  20.2 °C 65.3 °F /  18.5 °C 29.88in /  1011.7hPa SSE 1.0mph /  1.6km/h 3.0mph /  4.8km/h 90% 0.00in /  0mm
21:29 68.4 °F /  20.2 °C 65.4 °F /  18.6 °C 29.88in /  1011.7hPa Calm   2.0mph /  3.2km/h 90% 0.00in /  0mm
21:34 68.3 °F /  20.2 °C 65.3 °F /  18.5 °C 29.88in /  1011.7hPa Calm   2.0mph /  3.2km/h 90% 0.00in /  0mm
21:39 68.3 °F /  20.2 °C 65.3 °F /  18.5 °C 29.88in /  1011.7hPa Calm   1.0mph /  1.6km/h 90% 0.00in /  0mm
21:44 68.2 °F /  20.1 °C 65.2 °F /  18.4 °C 29.88in /  1011.7hPa Calm     90% 0.00in /  0mm
21:49 68.0 °F /  20 °C 65.0 °F /  18.3 °C 29.88in /  1011.7hPa Calm     90% 0.00in /  0mm
21:54 67.8 °F /  19.9 °C 64.8 °F /  18.2 °C 29.88in /  1011.7hPa Calm     90% 0.00in /  0mm
21:59 67.9 °F /  19.9 °C 65.2 °F /  18.4 °C 29.89in /  1012.1hPa Calm     91% 0.00in /  0mm
22:04 67.9 °F /  19.9 °C 65.2 °F /  18.4 °C 29.89in /  1012.1hPa Calm     91% 0.00in /  0mm
22:09 67.8 °F /  19.9 °C 65.1 °F /  18.4 °C 29.89in /  1012.1hPa Calm     91% 0.00in /  0mm
22:14 67.8 °F /  19.9 °C 65.1 °F /  18.4 °C 29.89in /  1012.1hPa Calm     91% 0.00in /  0mm
22:19 67.8 °F /  19.9 °C 65.1 °F /  18.4 °C 29.89in /  1012.1hPa Calm     91% 0.00in /  0mm
22:24 67.7 °F /  19.8 °C 65.0 °F /  18.3 °C 29.89in /  1012.1hPa Calm     91% 0.00in /  0mm
22:29 67.7 °F /  19.8 °C 65.0 °F /  18.3 °C 29.88in /  1011.7hPa Calm     91% 0.00in /  0mm
22:34 67.6 °F /  19.8 °C 64.9 °F /  18.3 °C 29.89in /  1012.1hPa Calm     91% 0.00in /  0mm
22:39 67.6 °F /  19.8 °C 65.2 °F /  18.4 °C 29.89in /  1012.1hPa Calm     92% 0.00in /  0mm
22:44 67.6 °F /  19.8 °C 65.2 °F /  18.4 °C 29.89in /  1012.1hPa Calm     92% 0.00in /  0mm
22:49 67.6 °F /  19.8 °C 65.2 °F /  18.4 °C 29.89in /  1012.1hPa Calm     92% 0.00in /  0mm
22:54 67.6 °F /  19.8 °C 65.2 °F /  18.4 °C 29.89in /  1012.1hPa Calm     92% 0.00in /  0mm
22:59 67.5 °F /  19.7 °C 65.1 °F /  18.4 °C 29.89in /  1012.1hPa Calm   3.0mph /  4.8km/h 92% 0.00in /  0mm
23:04 67.6 °F /  19.8 °C 65.2 °F /  18.4 °C 29.89in /  1012.1hPa SSE 1.0mph /  1.6km/h 3.0mph /  4.8km/h 92% 0.00in /  0mm
23:09 67.4 °F /  19.7 °C 65.0 °F /  18.3 °C 29.89in /  1012.1hPa SSE 1.0mph /  1.6km/h 3.0mph /  4.8km/h 92% 0.00in /  0mm
23:14 67.3 °F /  19.6 °C 64.9 °F /  18.3 °C 29.89in /  1012.1hPa Calm   2.0mph /  3.2km/h 92% 0.00in /  0mm
23:19 67.4 °F /  19.7 °C 65.0 °F /  18.3 °C 29.89in /  1012.1hPa Calm     92% 0.00in /  0mm
23:24 67.2 °F /  19.6 °C 64.5 °F /  18.1 °C 29.89in /  1012.1hPa South 2.0mph /  3.2km/h 3.0mph /  4.8km/h 91% 0.00in /  0mm
23:29 67.3 °F /  19.6 °C 64.6 °F /  18.1 °C 29.89in /  1012.1hPa South 1.0mph /  1.6km/h 3.0mph /  4.8km/h 91% 0.00in /  0mm
23:34 67.3 °F /  19.6 °C 64.6 °F /  18.1 °C 29.88in /  1011.7hPa South 1.0mph /  1.6km/h 4.0mph /  6.4km/h 91% 0.00in /  0mm
23:39 67.3 °F /  19.6 °C 64.6 °F /  18.1 °C 29.89in /  1012.1hPa WSW 1.0mph /  1.6km/h 3.0mph /  4.8km/h 91% 0.00in /  0mm
23:44 67.2 °F /  19.6 °C 64.5 °F /  18.1 °C 29.89in /  1012.1hPa SSW 1.0mph /  1.6km/h 4.0mph /  6.4km/h 91% 0.00in /  0mm
23:49 67.2 °F /  19.6 °C 64.5 °F /  18.1 °C 29.89in /  1012.1hPa SW 2.0mph /  3.2km/h 5.0mph /  8km/h 91% 0.00in /  0mm
23:54 67.2 °F /  19.6 °C 64.5 °F /  18.1 °C 29.89in /  1012.1hPa Calm   4.0mph /  6.4km/h 91% 0.00in /  0mm
23:59 67.3 °F /  19.6 °C 64.6 °F /  18.1 °C 29.89in /  1012.1hPa SSW 1.0mph /  1.6km/h 4.0mph /  6.4km/h 91% 0.00in /  0mm
Buffalo, New York, USA
Compliments of Weather Underground - 2.5 mb